This is the latest recevied weather packets stored in our database for station/object HP1COO-13. If no packets are shown the sender has not sent any weather packets the latest 1 day(s).
| Time | Temp. | Humidity | Pressure | Rain* | Wind** | Luminosity | Snow |
|---|---|---|---|---|---|---|---|
| 1778025827 | 26.11° C | 99% | 1007.9 hPa | 0 mm | 0.45 m/s, 12° | - | - |
| 1778025194 | 26.11° C | 99% | 1007.7 hPa | 0 mm | 0.89 m/s, 354° | - | - |
| 1778024561 | 26.11° C | 99% | 1007.4 hPa | 0 mm | 0 m/s | - | - |
| 1778023928 | 26.11° C | 99% | 1007.3 hPa | 0 mm | 0 m/s | - | - |
| 1778023295 | 26.11° C | 99% | 1007 hPa | 9.65 mm | 0.45 m/s, 5° | - | - |
| 1778022662 | 26.11° C | 99% | 1007.3 hPa | 24.38 mm | 0.45 m/s, 37° | - | - |
| 1778022029 | 25.56° C | 98% | 1007.1 hPa | 25.15 mm | 0.89 m/s, 331° | - | - |
| 1778021396 | 25.56° C | 98% | 1007 hPa | 25.15 mm | 0.89 m/s, 2° | - | - |
| 1778020763 | 25.56° C | 97% | 1007.1 hPa | 25.15 mm | 0.89 m/s, 332° | - | - |
| 1778020130 | 25.56° C | 94% | 1006.9 hPa | 23.37 mm | 0.89 m/s, 272° | - | - |
| 1778019497 | 26.67° C | 94% | 1007.4 hPa | 2.29 mm | 3.13 m/s, 34° | - | - |
| 1778018864 | 27.78° C | 90% | 1006.9 hPa | 0 mm | 2.24 m/s, 45° | - | - |
| 1778018263 | 28.33° C | 88% | 1006.9 hPa | 0 mm | 1.34 m/s, 107° | - | - |
| 1778018231 | 28.33° C | 88% | 1006.9 hPa | 0 mm | 1.34 m/s, 107° | - | - |
| 1778016965 | 29.44° C | 82% | 1007 hPa | 0 mm | 0 m/s | - | - |
| 1778016332 | 28.89° C | 83% | 1006.8 hPa | 0 mm | 0.89 m/s, 189° | - | - |
| 1778015066 | 28.89° C | 89% | 1006.9 hPa | 0 mm | 0.45 m/s, 236° | - | - |
| 1778014433 | 28.89° C | 89% | 1006.9 hPa | 0 mm | 0.89 m/s, 205° | - | - |
| 1778013167 | 28.89° C | 90% | 1007 hPa | 0 mm | 0.45 m/s, 200° | - | - |
| 1778012534 | 28.33° C | 91% | 1006.9 hPa | 0 mm | 0.45 m/s, 163° | - | - |
| 1778011902 | 28.33° C | 93% | 1006.8 hPa | 0 mm | 0.45 m/s, 88° | - | - |
| 1778011268 | 27.78° C | 93% | 1006.9 hPa | 0 mm | 1.34 m/s, 32° | - | - |
| 1778010635 | 27.78° C | 94% | 1007 hPa | 0 mm | 0.89 m/s, 24° | - | - |
| 1778010002 | 27.78° C | 95% | 1007.3 hPa | 0 mm | 0.89 m/s, 18° | - | - |
| 1778009369 | 27.22° C | 96% | 1007.5 hPa | 0.25 mm | 0.89 m/s, 19° | - | - |
* Rain latest hour (hover to see other rain measurements)
** Current wind speed in m/s (hover to see current wind gust speed)